KRTN/RTN METAR and TAF weather

Enter ICAO airport designator
Station Type Date Time Source
KRTN METAR 2021/09/16 20:53 UTC NOAA

KRTN 162053Z AUTO 20014G34KT 10SM CLR 32/M09 A2997 RMK AO2 PK WND 20034/2049 SLP046 T03221089 56023


Station Type Date Time Source
KRTN Decoded METAR 2021/09/16 20:53 UTC NOAA

Raton, Raton Municipal \ Crews Field Airport, NM, United States (KRTN) 36-44-31N 104-39-28W 1939M
Sep 16, 2021 - 04:53 PM EDT / 2021.09.16 2053 UTC
Wind: from the SSW (200 degrees) at 16 MPH (14 KT) gusting to 39 MPH (34 KT):0
Visibility: 10 mile(s):0
Sky conditions: clear
Temperature: 90.0 F (32.2 C)
Dew Point: 16.0 F (-8.9 C)
Relative Humidity: 6%
Pressure (altimeter): 29.97 in. Hg (1014 hPa)
Pressure tendency: 0.07 inches (2.3 hPa) lower than three hours ago
ob: KRTN 162053Z AUTO 20014G34KT 10SM CLR 32/M09 A2997 RMK AO2 PK WND 20034/2049 SLP046 T03221089 56023
cycle: 21

Station Type Date Time Source
KRTN TAF UTC NOAA

Error!

Example: see airport list